DAOO/ORN METAR and TAF weather

Enter ICAO airport designator
Station Type Date Time Source
DAOO METAR 2019/04/25 21:30 UTC NOAA

DAOO 252130Z 20013KT CAVOK 16/12 Q1021


Station Type Date Time Source
DAOO Decoded METAR 2019/04/25 21:30 UTC NOAA

Oran / Es Senia, Algeria (DAOO) 35-38N 000-36W 90M
Apr 25, 2019 - 05:30 PM EDT / 2019.04.25 2130 UTC
Wind: from the SSW (200 degrees) at 15 MPH (13 KT):0
Visibility: greater than 7 mile(s):0
Temperature: 60 F (16 C)
Dew Point: 53 F (12 C)
Relative Humidity: 77%
Pressure (altimeter): 30.15 in. Hg (1021 hPa)
ob: DAOO 252130Z 20013KT CAVOK 16/12 Q1021
cycle: 21

Station Type Date Time Source
DAOO TAF 2019/04/25 18:33 UTC NOAA

TAF DAOO 251700Z 2518/2618 26014KT 9999 SCT026
TEMPO 2518/2606 24020KT
TEMPO 2522/2606 BKN020
BECMG 2612/2615 CAVOK

Example: see airport list